Time;durP1;ratioP1;P1;durP2;ratioP2;P2;SDS_P1;SDS_P2;PMS_P1;PMS_P2;Temp;Humidity;BMP_temperature;BMP_pressure;BME280_temperature;BME280_humidity;BME280_pressure;Samples;Min_cycle;Max_cycle;Signal;HPM_P1;HPM_P2
2023/07/15 00:01:38;;;;;;;;;;;;;;;21.32;61.72;92799.44;2045418;70;20090;-77
2023/07/15 00:04:13;;;;;;;;;;;;;;;21.35;61.25;92798.09;2045132;70;20074;-77
2023/07/15 00:06:40;;;;;;;;;;;;;;;21.16;61.77;92796.19;2045201;70;20063;-76
2023/07/15 00:09:07;;;;;;;;;;;;;;;21.20;61.04;92796.28;2045101;70;20051;-78
2023/07/15 00:11:34;;;;;;;;;;;;;;;21.23;60.94;92806.38;2044164;70;20059;-78
2023/07/15 00:14:02;;;;;;;;;;;;;;;21.10;62.65;92805.34;2045173;70;20070;-78
2023/07/15 00:16:29;;;;;;;;;;;;;;;21.05;62.52;92798.09;2045628;70;20051;-78
2023/07/15 00:18:55;;;;;;;;;;;;;;;21.05;62.47;92792.38;2049682;70;20087;-77
2023/07/15 00:21:25;;;;;;;;;;;;;;;20.96;61.70;92793.59;2051050;70;20173;-77
2023/07/15 00:23:55;;;;;;;;;;;;;;;21.04;61.51;92793.78;2051333;69;20110;-76
2023/07/15 00:26:24;;;;;;;;;;;;;;;20.83;61.97;92797.56;2052307;70;20102;-77
2023/07/15 00:28:50;;;;;;;;;;;;;;;20.84;62.02;92793.28;2051150;70;20061;-77
2023/07/15 00:31:17;;;;;;;;;;;;;;;20.70;63.29;92793.66;2051268;70;20066;-77
2023/07/15 00:33:43;;;;;;;;;;;;;;;20.79;62.41;92798.19;2050674;70;20074;-77
2023/07/15 00:36:10;;;;;;;;;;;;;;;20.71;62.92;92793.00;2051419;70;20073;-77
2023/07/15 00:38:36;;;;;;;;;;;;;;;20.78;62.92;92800.31;2047765;70;20071;-76
2023/07/15 00:41:03;;;;;;;;;;;;;;;20.71;62.65;92803.69;2054454;70;20449;-77
2023/07/15 00:43:47;;;;;;;;;;;;;;;20.84;61.43;92807.59;2050193;70;20099;-77
2023/07/15 00:46:16;;;;;;;;;;;;;;;20.76;62.91;92819.56;2050877;70;20062;-76
2023/07/15 00:48:45;;;;;;;;;;;;;;;20.87;61.26;92827.00;2051129;70;20081;-77
2023/07/15 00:51:10;;;;;;;;;;;;;;;20.82;61.26;92819.72;2048837;70;20837;-77
2023/07/15 00:53:36;;;;;;;;;;;;;;;20.77;60.84;92827.47;2051282;70;20047;-77
2023/07/15 00:56:01;;;;;;;;;;;;;;;20.63;61.99;92826.38;2047355;70;20170;-77
2023/07/15 00:58:28;;;;;;;;;;;;;;;20.62;61.48;92825.66;2048032;70;20126;-77
2023/07/15 01:00:54;;;;;;;;;;;;;;;20.63;61.33;92824.25;2049343;70;20058;-77
2023/07/15 01:03:19;;;;;;;;;;;;;;;20.26;62.27;92817.56;2050959;70;20050;-78
2023/07/15 01:05:44;;;;;;;;;;;;;;;20.50;62.20;92820.34;2047950;70;20166;-77
2023/07/15 01:08:10;;;;;;;;;;;;;;;20.53;61.32;92818.28;2052277;70;20057;-77
2023/07/15 01:10:36;;;;;;;;;;;;;;;20.54;61.99;92820.47;2050666;70;20051;-76
2023/07/15 01:13:04;;;;;;;;;;;;;;;20.64;62.30;92814.25;2047697;70;20073;-76
2023/07/15 01:15:30;;;;;;;;;;;;;;;20.62;62.07;92817.09;2051353;70;20482;-77
2023/07/15 01:17:56;;;;;;;;;;;;;;;20.59;62.77;92820.56;2051161;70;20090;-77
2023/07/15 01:20:25;;;;;;;;;;;;;;;20.55;62.53;92821.91;2051463;70;20173;-77
2023/07/15 01:22:51;;;;;;;;;;;;;;;20.54;61.28;92819.72;2050945;70;20581;-77
2023/07/15 01:25:17;;;;;;;;;;;;;;;20.43;62.19;92824.41;2050312;70;20054;-77
2023/07/15 01:27:54;;;;;;;;;;;;;;;20.41;62.97;92823.66;2052781;70;20051;-78
2023/07/15 01:30:20;;;;;;;;;;;;;;;20.44;62.98;92820.19;2050184;70;20080;-77
2023/07/15 01:32:45;;;;;;;;;;;;;;;20.35;60.99;92823.50;2049658;70;20066;-78
2023/07/15 01:35:12;;;;;;;;;;;;;;;20.33;61.94;92818.44;2052461;70;20514;-76
2023/07/15 01:37:42;;;;;;;;;;;;;;;20.43;61.88;92826.53;2051025;70;20580;-78
2023/07/15 01:40:09;;;;;;;;;;;;;;;20.29;63.41;92824.03;2051302;70;20142;-76
2023/07/15 01:42:35;;;;;;;;;;;;;;;20.36;62.10;92822.81;2052049;70;20473;-76
2023/07/15 01:45:05;;;;;;;;;;;;;;;20.33;62.16;92826.28;2052712;70;20051;-76
2023/07/15 01:47:30;;;;;;;;;;;;;;;20.39;61.90;92829.28;2048790;70;20097;-75
2023/07/15 01:49:56;;;;;;;;;;;;;;;20.27;61.73;92824.00;2049267;70;20137;-77
2023/07/15 01:52:21;;;;;;;;;;;;;;;20.30;62.89;92829.09;2046265;70;20078;-76
2023/07/15 01:54:46;;;;;;;;;;;;;;;20.37;62.13;92824.25;2047771;70;20058;-76
2023/07/15 01:57:12;;;;;;;;;;;;;;;20.38;61.82;92825.72;2051408;70;20051;-76
2023/07/15 01:59:38;;;;;;;;;;;;;;;20.38;62.38;92822.84;2048378;70;20166;-77
2023/07/15 02:02:04;;;;;;;;;;;;;;;20.22;62.42;92825.28;2050028;70;20561;-76
2023/07/15 02:04:31;;;;;;;;;;;;;;;20.20;62.79;92830.94;2053924;70;20124;-77
2023/07/15 02:06:57;;;;;;;;;;;;;;;20.19;62.36;92827.34;2051886;70;20150;-77
2023/07/15 02:09:23;;;;;;;;;;;;;;;20.07;62.28;92832.75;2050557;70;20431;-77
2023/07/15 02:11:52;;;;;;;;;;;;;;;20.25;62.72;92826.78;2048569;70;20069;-77
2023/07/15 02:14:19;;;;;;;;;;;;;;;19.93;62.15;92830.25;2050126;70;20062;-77
2023/07/15 02:16:44;;;;;;;;;;;;;;;19.98;62.45;92826.09;2046813;70;20509;-76
2023/07/15 02:19:10;;;;;;;;;;;;;;;20.09;62.39;92829.22;2052925;70;20062;-76
2023/07/15 02:21:36;;;;;;;;;;;;;;;19.99;62.62;92827.53;2050639;70;20074;-74
2023/07/15 02:24:04;;;;;;;;;;;;;;;19.88;63.68;92820.06;2050385;70;20113;-76
2023/07/15 02:26:31;;;;;;;;;;;;;;;19.91;61.82;92815.16;2048725;70;20653;-77
2023/07/15 02:28:57;;;;;;;;;;;;;;;19.89;62.05;92815.09;2050590;70;20455;-77
2023/07/15 02:31:23;;;;;;;;;;;;;;;19.92;61.67;92819.47;2051824;70;20060;-77
2023/07/15 02:33:48;;;;;;;;;;;;;;;19.85;62.43;92815.00;2052324;70;20101;-77
2023/07/15 02:36:15;;;;;;;;;;;;;;;19.87;61.97;92821.47;2051526;70;20058;-78
2023/07/15 02:38:40;;;;;;;;;;;;;;;20.00;62.28;92822.56;2050571;70;20506;-77
2023/07/15 02:41:06;;;;;;;;;;;;;;;19.80;61.62;92814.88;2048483;70;20047;-77
2023/07/15 02:43:31;;;;;;;;;;;;;;;20.04;61.75;92823.38;2051310;70;20082;-77
2023/07/15 02:45:57;;;;;;;;;;;;;;;19.98;62.13;92816.78;2051183;70;20058;-77
2023/07/15 02:48:22;;;;;;;;;;;;;;;19.97;62.42;92821.75;2049599;70;20468;-77
2023/07/15 02:50:51;;;;;;;;;;;;;;;20.06;61.49;92823.44;2051007;70;20097;-78
2023/07/15 02:53:17;;;;;;;;;;;;;;;19.85;63.20;92820.72;2052293;70;20094;-77
2023/07/15 02:55:43;;;;;;;;;;;;;;;19.89;62.66;92820.81;2048801;70;20086;-76
2023/07/15 02:58:08;;;;;;;;;;;;;;;19.92;61.08;92825.91;2052311;70;20145;-77
2023/07/15 03:00:37;;;;;;;;;;;;;;;19.98;61.37;92828.22;2052314;70;20054;-77
2023/07/15 03:03:03;;;;;;;;;;;;;;;19.96;60.23;92820.31;2051960;70;20141;-77
2023/07/15 03:05:28;;;;;;;;;;;;;;;19.68;60.91;92816.66;2048834;70;20145;-75
2023/07/15 03:07:54;;;;;;;;;;;;;;;19.91;60.56;92826.59;2051173;70;20058;-76
2023/07/15 03:10:20;;;;;;;;;;;;;;;19.85;60.72;92826.41;2051878;70;20049;-77
2023/07/15 03:12:48;;;;;;;;;;;;;;;19.75;60.00;92826.84;2048623;70;20150;-77
2023/07/15 03:15:15;;;;;;;;;;;;;;;19.87;60.07;92830.03;2051914;70;20066;-76
2023/07/15 03:17:40;;;;;;;;;;;;;;;19.94;60.08;92836.69;2045812;70;20062;-76
2023/07/15 03:20:21;;;;;;;;;;;;;;;19.79;61.25;92835.53;2044491;70;20495;-77
2023/07/15 03:22:50;;;;;;;;;;;;;;;19.95;60.59;92836.00;2045055;70;20122;-77
2023/07/15 03:25:19;;;;;;;;;;;;;;;19.81;60.81;92844.16;2045239;70;20090;-77
2023/07/15 03:27:44;;;;;;;;;;;;;;;19.83;60.87;92838.50;2045436;70;20090;-78
2023/07/15 03:30:10;;;;;;;;;;;;;;;19.78;60.45;92834.78;2045390;70;20090;-77
2023/07/15 03:32:36;;;;;;;;;;;;;;;19.85;60.92;92832.84;2048367;70;20055;-78
2023/07/15 03:35:03;;;;;;;;;;;;;;;19.81;61.51;92844.16;2045767;70;20110;-77
2023/07/15 03:37:29;;;;;;;;;;;;;;;19.82;61.72;92842.03;2046726;70;20058;-76
2023/07/15 03:39:55;;;;;;;;;;;;;;;19.54;62.36;92846.22;2045194;70;20134;-77
2023/07/15 03:42:21;;;;;;;;;;;;;;;19.62;61.57;92842.91;2045935;70;20175;-76
2023/07/15 03:44:47;;;;;;;;;;;;;;;19.54;63.41;92843.34;2048035;70;20189;-75
2023/07/15 03:47:12;;;;;;;;;;;;;;;19.63;63.08;92840.78;2047199;70;20071;-76
2023/07/15 03:49:37;;;;;;;;;;;;;;;19.70;63.06;92853.81;2046812;70;20055;-77
2023/07/15 03:52:03;;;;;;;;;;;;;;;19.65;62.10;92850.13;2047706;70;20431;-77
2023/07/15 03:54:29;;;;;;;;;;;;;;;19.61;61.43;92855.72;2046831;70;20059;-78
2023/07/15 03:56:56;;;;;;;;;;;;;;;19.63;62.19;92858.63;2044385;70;20139;-77
2023/07/15 03:59:22;;;;;;;;;;;;;;;19.67;60.86;92858.03;2044539;70;20079;-76
2023/07/15 04:01:47;;;;;;;;;;;;;;;19.72;62.03;92856.75;2045139;70;20051;-76
2023/07/15 04:04:13;;;;;;;;;;;;;;;19.70;61.54;92860.28;2048322;70;20472;-77
2023/07/15 04:06:38;;;;;;;;;;;;;;;19.48;62.67;92848.91;2047944;70;20125;-76
2023/07/15 04:09:11;;;;;;;;;;;;;;;19.70;62.16;92854.56;2046338;70;20588;-77
2023/07/15 04:11:36;;;;;;;;;;;;;;;19.71;62.30;92850.31;2044713;70;20150;-77
2023/07/15 04:14:02;;;;;;;;;;;;;;;19.61;63.12;92850.03;2045269;70;20193;-77
2023/07/15 04:16:28;;;;;;;;;;;;;;;19.72;62.82;92853.91;2046305;70;20043;-77
2023/07/15 04:18:53;;;;;;;;;;;;;;;19.67;62.48;92849.47;2050552;70;20406;-77
2023/07/15 04:21:18;;;;;;;;;;;;;;;19.62;62.50;92857.19;2054063;70;20053;-77
2023/07/15 04:23:44;;;;;;;;;;;;;;;19.73;61.96;92846.78;2053158;69;20508;-77
2023/07/15 04:26:10;;;;;;;;;;;;;;;19.70;61.09;92850.97;2053186;70;20094;-77
2023/07/15 04:28:35;;;;;;;;;;;;;;;19.58;59.74;92834.19;2051962;70;20053;-76
2023/07/15 04:31:01;;;;;;;;;;;;;;;19.70;59.46;92840.28;2051808;70;20070;-77
2023/07/15 04:33:26;;;;;;;;;;;;;;;19.72;60.75;92846.06;2051635;70;20094;-77
2023/07/15 04:35:52;;;;;;;;;;;;;;;19.70;61.92;92845.25;2054070;70;20080;-77
2023/07/15 04:38:18;;;;;;;;;;;;;;;19.67;61.86;92835.91;2053493;69;20569;-77
2023/07/15 04:40:43;;;;;;;;;;;;;;;19.59;62.29;92843.47;2053364;70;20042;-77
2023/07/15 04:43:09;;;;;;;;;;;;;;;19.50;61.24;92839.66;2053127;70;20396;-77
2023/07/15 04:45:34;;;;;;;;;;;;;;;19.47;60.95;92849.53;2052244;69;20077;-77
2023/07/15 04:48:00;;;;;;;;;;;;;;;19.48;60.07;92843.19;2051700;70;20094;-77
2023/07/15 04:50:25;;;;;;;;;;;;;;;19.49;60.00;92841.78;2050906;70;20079;-77
2023/07/15 04:52:50;;;;;;;;;;;;;;;19.41;61.31;92840.81;2052184;70;20050;-76
2023/07/15 04:55:16;;;;;;;;;;;;;;;19.38;62.08;92851.44;2053119;70;20125;-77
2023/07/15 04:57:42;;;;;;;;;;;;;;;19.39;61.41;92838.63;2054765;70;20462;-76
2023/07/15 05:00:11;;;;;;;;;;;;;;;19.29;60.53;92841.91;2051934;70;20054;-78
2023/07/15 05:02:39;;;;;;;;;;;;;;;19.34;60.20;92853.44;2048815;70;20514;-77
2023/07/15 05:05:05;;;;;;;;;;;;;;;19.60;61.14;92850.63;2049367;70;20047;-77
2023/07/15 05:07:31;;;;;;;;;;;;;;;19.58;61.94;92851.31;2051009;70;20048;-77
2023/07/15 05:09:57;;;;;;;;;;;;;;;19.61;61.20;92844.31;2052371;69;20076;-77
2023/07/15 05:12:23;;;;;;;;;;;;;;;19.48;61.12;92846.03;2052168;70;20483;-77
2023/07/15 05:14:48;;;;;;;;;;;;;;;19.38;60.22;92842.13;2052184;70;20051;-76
2023/07/15 05:17:14;;;;;;;;;;;;;;;19.44;60.23;92843.06;2051884;70;20054;-76
2023/07/15 05:19:39;;;;;;;;;;;;;;;19.49;59.52;92838.94;2051453;70;20566;-77
2023/07/15 05:22:06;;;;;;;;;;;;;;;19.48;59.78;92848.16;2051486;70;20050;-77
2023/07/15 05:24:33;;;;;;;;;;;;;;;19.63;60.38;92843.63;2051968;70;20077;-77
2023/07/15 05:26:58;;;;;;;;;;;;;;;19.43;59.96;92855.16;2052080;70;20047;-77
2023/07/15 05:29:24;;;;;;;;;;;;;;;19.59;59.41;92860.63;2051983;70;20053;-77
2023/07/15 05:31:50;;;;;;;;;;;;;;;19.57;60.19;92860.56;2052703;70;20051;-78
2023/07/15 05:34:15;;;;;;;;;;;;;;;19.48;59.98;92854.59;2054176;70;20046;-78
2023/07/15 05:36:41;;;;;;;;;;;;;;;19.60;61.32;92856.34;2054270;70;20039;-77
2023/07/15 05:39:06;;;;;;;;;;;;;;;19.60;62.78;92859.22;2051512;70;20054;-76
2023/07/15 05:41:32;;;;;;;;;;;;;;;19.55;63.65;92853.38;2052743;69;20065;-78
2023/07/15 05:43:57;;;;;;;;;;;;;;;19.66;62.11;92854.44;2050457;70;20483;-77
2023/07/15 05:46:23;;;;;;;;;;;;;;;19.71;62.31;92856.03;2051174;70;20086;-77
2023/07/15 05:48:48;;;;;;;;;;;;;;;19.58;61.88;92856.31;2050952;70;20138;-77
2023/07/15 05:51:16;;;;;;;;;;;;;;;19.50;60.48;92856.78;2051752;70;20505;-77
2023/07/15 05:53:43;;;;;;;;;;;;;;;19.49;60.98;92856.06;2051257;70;20082;-76
2023/07/15 05:56:08;;;;;;;;;;;;;;;19.75;59.97;92846.84;2051256;70;20059;-77
2023/07/15 05:58:33;;;;;;;;;;;;;;;19.79;61.11;92844.09;2051683;70;20125;-76
2023/07/15 06:00:59;;;;;;;;;;;;;;;19.72;62.66;92843.19;2053359;70;20093;-77
2023/07/15 06:03:25;;;;;;;;;;;;;;;19.82;62.75;92842.75;2054063;70;20022;-77
2023/07/15 06:05:51;;;;;;;;;;;;;;;19.70;61.58;92842.41;2047965;70;20055;-77
2023/07/15 06:08:17;;;;;;;;;;;;;;;19.75;60.59;92836.16;2051533;70;20043;-78
2023/07/15 06:10:43;;;;;;;;;;;;;;;19.76;61.89;92840.47;2052088;70;20158;-77
2023/07/15 06:13:09;;;;;;;;;;;;;;;19.82;61.87;92842.03;2052228;70;20050;-77
2023/07/15 06:15:36;;;;;;;;;;;;;;;19.81;61.23;92838.44;2051627;70;20103;-77
2023/07/15 06:18:02;;;;;;;;;;;;;;;19.84;60.64;92836.38;2051560;70;20549;-78
2023/07/15 06:20:27;;;;;;;;;;;;;;;19.84;62.16;92825.69;2051932;70;20051;-76
2023/07/15 06:22:53;;;;;;;;;;;;;;;19.89;61.49;92827.25;2051878;70;20050;-77
2023/07/15 06:25:19;;;;;;;;;;;;;;;19.85;62.22;92824.28;2052240;70;20051;-77
2023/07/15 06:27:44;;;;;;;;;;;;;;;19.25;62.28;92815.38;2052345;70;20047;-77
2023/07/15 06:30:10;;;;;;;;;;;;;;;19.35;62.08;92820.66;2052337;70;20050;-77
2023/07/15 06:32:36;;;;;;;;;;;;;;;19.59;61.43;92817.78;2052249;70;20051;-77
2023/07/15 06:35:01;;;;;;;;;;;;;;;19.92;61.45;92816.59;2051080;70;20059;-77
2023/07/15 06:37:27;;;;;;;;;;;;;;;20.15;62.78;92807.25;2051902;70;20215;-76
2023/07/15 06:39:52;;;;;;;;;;;;;;;20.17;63.97;92803.72;2051398;70;20157;-78
2023/07/15 06:42:18;;;;;;;;;;;;;;;20.35;63.09;92807.06;2052522;70;20055;-77
2023/07/15 06:44:43;;;;;;;;;;;;;;;20.46;64.20;92799.47;2052472;70;20062;-76
2023/07/15 06:47:09;;;;;;;;;;;;;;;20.54;63.79;92802.56;2051889;70;20070;-78
2023/07/15 06:49:34;;;;;;;;;;;;;;;20.64;63.67;92791.38;2052456;70;20027;-77
2023/07/15 06:52:00;;;;;;;;;;;;;;;20.74;63.43;92788.75;2051943;70;20082;-77
2023/07/15 06:54:29;;;;;;;;;;;;;;;20.80;61.77;92779.59;2048100;70;20087;-77
2023/07/15 06:56:54;;;;;;;;;;;;;;;20.93;62.00;92774.91;2052396;70;20513;-79
2023/07/15 06:59:20;;;;;;;;;;;;;;;20.93;61.83;92772.75;2049524;70;20059;-79
2023/07/15 07:01:45;;;;;;;;;;;;;;;21.10;61.63;92773.16;2048396;70;20146;-78
2023/07/15 07:04:11;;;;;;;;;;;;;;;21.24;63.54;92771.34;2048662;70;20051;-79
2023/07/15 07:06:36;;;;;;;;;;;;;;;21.29;62.93;92767.16;2048694;70;20067;-78
2023/07/15 07:09:02;;;;;;;;;;;;;;;21.42;61.13;92762.44;2048789;70;20593;-76
2023/07/15 07:11:27;;;;;;;;;;;;;;;21.48;62.37;92761.84;2049014;70;20051;-77
2023/07/15 07:13:53;;;;;;;;;;;;;;;21.54;61.31;92756.97;2049365;70;20142;-77
2023/07/15 07:16:18;;;;;;;;;;;;;;;21.67;60.67;92754.34;2049185;70;20503;-76
2023/07/15 07:18:44;;;;;;;;;;;;;;;21.73;60.46;92752.34;2049402;70;20054;-77
2023/07/15 07:21:10;;;;;;;;;;;;;;;21.74;60.69;92755.94;2048843;70;20043;-77
2023/07/15 07:23:37;;;;;;;;;;;;;;;21.82;60.62;92745.38;2049015;70;20147;-76
2023/07/15 07:26:03;;;;;;;;;;;;;;;21.90;60.95;92744.81;2048752;70;20518;-77
2023/07/15 07:28:43;;;;;;;;;;;;;;;21.99;60.18;92743.56;2049112;70;20059;-77
2023/07/15 07:31:09;;;;;;;;;;;;;;;21.97;60.55;92732.03;2045799;70;20059;-78
2023/07/15 07:33:35;;;;;;;;;;;;;;;22.13;61.43;92728.78;2048978;70;20138;-78
2023/07/15 07:36:01;;;;;;;;;;;;;;;22.19;60.18;92717.41;2052676;70;20499;-81
2023/07/15 07:38:27;;;;;;;;;;;;;;;22.36;59.73;92711.94;2055910;70;20477;-80
2023/07/15 07:40:52;;;;;;;;;;;;;;;22.58;59.80;92713.06;2055752;70;20077;-78
2023/07/15 07:43:18;;;;;;;;;;;;;;;22.70;60.50;92711.81;2055600;69;20054;-79
2023/07/15 07:45:43;;;;;;;;;;;;;;;22.77;59.29;92704.72;2055459;70;20061;-81
2023/07/15 07:48:08;;;;;;;;;;;;;;;22.75;58.59;92705.44;2055631;70;20062;-79
2023/07/15 07:50:35;;;;;;;;;;;;;;;22.90;57.81;92694.91;2055702;69;20120;-80
2023/07/15 07:53:01;;;;;;;;;;;;;;;23.01;57.64;92708.00;2055573;70;20053;-79
2023/07/15 07:55:26;;;;;;;;;;;;;;;23.12;58.59;92699.53;2052276;70;20015;-79
2023/07/15 07:57:52;;;;;;;;;;;;;;;23.33;56.78;92704.16;2055449;70;20074;-78
2023/07/15 08:00:18;;;;;;;;;;;;;;;23.49;51.62;92704.34;2055204;70;20051;-79
2023/07/15 08:02:43;;;;;;;;;;;;;;;23.73;55.17;92695.34;2055520;69;20457;-78
2023/07/15 08:05:09;;;;;;;;;;;;;;;23.93;53.90;92697.00;2055380;70;20437;-79
2023/07/15 08:07:34;;;;;;;;;;;;;;;24.10;55.02;92687.13;2055548;69;20113;-80
2023/07/15 08:10:00;;;;;;;;;;;;;;;24.36;54.52;92678.00;2055613;70;20047;-79
2023/07/15 08:12:25;;;;;;;;;;;;;;;24.77;54.82;92675.50;2055363;69;20101;-81
2023/07/15 08:14:51;;;;;;;;;;;;;;;25.10;53.56;92680.06;2055193;69;20478;-79
2023/07/15 08:17:17;;;;;;;;;;;;;;;25.50;54.02;92672.34;2055310;70;20058;-79
2023/07/15 08:19:43;;;;;;;;;;;;;;;25.75;53.42;92671.03;2055163;69;20160;-80
2023/07/15 08:22:08;;;;;;;;;;;;;;;26.29;52.30;92674.78;2055137;70;20468;-78
2023/07/15 08:24:34;;;;;;;;;;;;;;;26.81;48.69;92673.44;2055371;69;20050;-78
2023/07/15 08:27:00;;;;;;;;;;;;;;;27.00;49.98;92671.97;2055270;70;20056;-78
2023/07/15 08:29:25;;;;;;;;;;;;;;;27.06;45.03;92665.44;2055294;70;20130;-78
2023/07/15 08:31:50;;;;;;;;;;;;;;;27.08;42.31;92671.97;2055300;69;20054;-78
2023/07/15 08:34:16;;;;;;;;;;;;;;;27.73;42.98;92668.22;2055014;70;20135;-78
2023/07/15 08:36:41;;;;;;;;;;;;;;;28.23;44.49;92668.72;2055059;69;20113;-79
2023/07/15 08:39:07;;;;;;;;;;;;;;;28.33;39.30;92662.84;2055119;70;20050;-77
2023/07/15 08:41:33;;;;;;;;;;;;;;;28.32;39.55;92662.13;2054789;69;20132;-80
2023/07/15 08:43:58;;;;;;;;;;;;;;;28.75;39.91;92661.13;2055106;70;20058;-79
2023/07/15 08:46:26;;;;;;;;;;;;;;;28.53;38.66;92665.63;2054945;70;20050;-79
2023/07/15 08:48:52;;;;;;;;;;;;;;;28.85;40.38;92658.13;2055124;70;20034;-79
2023/07/15 08:51:18;;;;;;;;;;;;;;;29.92;38.89;92666.50;2055565;69;20093;-80
2023/07/15 08:53:44;;;;;;;;;;;;;;;29.36;38.32;92652.59;2055658;69;20050;-80
2023/07/15 08:56:10;;;;;;;;;;;;;;;30.12;36.87;92661.16;2055504;70;20015;-79
2023/07/15 08:58:36;;;;;;;;;;;;;;;28.74;38.63;92653.91;2055460;70;20466;-80
2023/07/15 09:01:01;;;;;;;;;;;;;;;29.70;37.96;92655.91;2055291;70;20138;-78
2023/07/15 09:03:27;;;;;;;;;;;;;;;30.22;36.55;92663.25;2055145;70;20054;-80
2023/07/15 09:05:53;;;;;;;;;;;;;;;30.49;38.59;92654.88;2055508;70;20109;-79
2023/07/15 09:08:18;;;;;;;;;;;;;;;30.61;34.48;92654.00;2055482;70;20142;-81
2023/07/15 09:10:54;;;;;;;;;;;;;;;30.80;35.68;92654.44;2055284;69;20132;-79
2023/07/15 09:13:23;;;;;;;;;;;;;;;30.28;35.50;92645.72;2055439;70;20148;-79
2023/07/15 09:15:49;;;;;;;;;;;;;;;31.53;34.15;92650.28;2055578;70;20047;-83
2023/07/15 09:18:14;;;;;;;;;;;;;;;31.65;33.63;92646.41;2055053;70;20078;-79
2023/07/15 09:20:40;;;;;;;;;;;;;;;32.12;34.54;92643.31;2054928;69;20050;-80
2023/07/15 09:23:05;;;;;;;;;;;;;;;31.77;34.73;92645.47;2055302;70;20121;-81
2023/07/15 09:25:31;;;;;;;;;;;;;;;32.40;34.75;92632.53;2055305;70;20050;-79
2023/07/15 09:27:56;;;;;;;;;;;;;;;31.93;33.97;92636.41;2055199;70;20043;-80
2023/07/15 09:30:22;;;;;;;;;;;;;;;32.51;33.58;92638.84;2055491;70;20157;-81
2023/07/15 09:32:47;;;;;;;;;;;;;;;33.13;31.25;92638.84;2052059;70;20050;-80
2023/07/15 09:35:16;;;;;;;;;;;;;;;32.25;32.98;92622.66;2055015;70;20049;-80
2023/07/15 09:37:41;;;;;;;;;;;;;;;33.00;32.68;92626.78;2055337;70;20482;-82
2023/07/15 09:40:08;;;;;;;;;;;;;;;33.04;31.76;92615.00;2055491;69;20140;-80
2023/07/15 09:42:53;;;;;;;;;;;;;;;33.45;31.48;92616.16;2055156;70;20054;-81
2023/07/15 09:45:34;;;;;;;;;;;;;;;33.02;32.41;92620.16;2055317;70;20108;-79
2023/07/15 09:48:00;;;;;;;;;;;;;;;33.13;30.39;92621.34;2055219;70;20092;-79
2023/07/15 09:50:26;;;;;;;;;;;;;;;33.75;31.70;92614.63;2051987;70;20066;-81
2023/07/15 09:52:53;;;;;;;;;;;;;;;33.94;28.37;92611.88;2055283;70;20395;-81
2023/07/15 09:55:19;;;;;;;;;;;;;;;33.69;29.53;92611.88;2055264;70;20066;-83
2023/07/15 09:57:45;;;;;;;;;;;;;;;34.94;30.58;92614.72;2055227;70;20055;-83
2023/07/15 10:00:18;;;;;;;;;;;;;;;34.80;28.07;92615.91;2055006;70;20145;-82
2023/07/15 10:02:46;;;;;;;;;;;;;;;34.70;28.95;92608.19;2055242;70;20451;-82
2023/07/15 10:05:14;;;;;;;;;;;;;;;34.46;28.25;92600.91;2055098;70;20046;-80
2023/07/15 10:07:42;;;;;;;;;;;;;;;34.50;28.98;92597.84;2055349;70;20050;-81
2023/07/15 10:10:08;;;;;;;;;;;;;;;34.73;27.56;92594.94;2055140;70;20098;-80
2023/07/15 10:12:34;;;;;;;;;;;;;;;35.22;28.33;92602.09;2054918;70;20118;-80
2023/07/15 10:15:04;;;;;;;;;;;;;;;35.30;26.74;92595.97;2055060;70;20057;-80
2023/07/15 10:17:33;;;;;;;;;;;;;;;36.66;27.99;92604.25;2049445;70;20047;-83
2023/07/15 10:20:03;;;;;;;;;;;;;;;37.36;28.74;92593.34;2048401;70;20061;-83
2023/07/15 10:22:32;;;;;;;;;;;;;;;36.39;28.52;92587.66;2048676;70;20083;-82
2023/07/15 10:24:58;;;;;;;;;;;;;;;36.00;26.81;92597.19;2050733;70;20134;-85
2023/07/15 10:27:27;;;;;;;;;;;;;;;36.75;27.61;92576.03;2048551;70;20146;-84
2023/07/15 10:30:19;;;;;;;;;;;;;;;36.80;25.76;92579.50;2050939;70;20073;-84
2023/07/15 10:33:08;;;;;;;;;;;;;;;37.83;24.22;92576.66;2048749;70;20073;-86
2023/07/15 10:35:39;;;;;;;;;;;;;;;38.80;25.16;92577.34;2048937;70;20138;-83
2023/07/15 10:38:24;;;;;;;;;;;;;;;37.12;25.09;92568.69;2048786;70;20047;-86
2023/07/15 10:40:50;;;;;;;;;;;;;;;37.61;25.21;92563.66;2048777;70;20050;-84
2023/07/15 10:43:20;;;;;;;;;;;;;;;39.67;25.64;92556.16;2048548;70;20051;-81
2023/07/15 10:45:52;;;;;;;;;;;;;;;40.96;22.35;92556.53;2048573;70;20079;-83
2023/07/15 10:48:18;;;;;;;;;;;;;;;40.66;20.95;92553.06;2048089;70;20146;-82
2023/07/15 10:50:53;;;;;;;;;;;;;;;43.77;19.55;92547.19;2048634;70;20142;-82
2023/07/15 10:53:26;;;;;;;;;;;;;;;44.87;19.12;92547.69;2048580;70;20491;-82
2023/07/15 10:55:58;;;;;;;;;;;;;;;46.86;18.13;92555.53;2047939;70;20061;-82
2023/07/15 10:58:28;;;;;;;;;;;;;;;44.24;18.28;92537.34;2048066;70;20079;-82
2023/07/15 11:00:57;;;;;;;;;;;;;;;47.10;18.35;92540.97;2047835;70;20082;-82
2023/07/15 11:03:23;;;;;;;;;;;;;;;48.71;16.71;92550.50;2047624;70;20059;-82
2023/07/15 11:05:49;;;;;;;;;;;;;;;48.94;15.11;92539.53;2048707;70;20579;-82
2023/07/15 11:08:17;;;;;;;;;;;;;;;48.01;14.99;92531.19;2048821;70;20055;-82
2023/07/15 11:10:43;;;;;;;;;;;;;;;48.27;15.84;92531.91;2048872;70;20435;-82
2023/07/15 11:13:12;;;;;;;;;;;;;;;50.66;14.32;92524.44;2049083;70;20059;-82
2023/07/15 11:15:38;;;;;;;;;;;;;;;49.05;15.67;92519.13;2049086;70;20069;-81
2023/07/15 11:18:03;;;;;;;;;;;;;;;49.59;14.67;92522.44;2054029;70;20429;-83
2023/07/15 11:20:29;;;;;;;;;;;;;;;51.14;13.67;92522.00;2052418;70;20574;-79
2023/07/15 11:22:54;;;;;;;;;;;;;;;50.80;13.59;92517.75;2052159;70;20058;-83
2023/07/15 11:25:20;;;;;;;;;;;;;;;52.13;13.22;92512.91;2055628;70;20477;-81
2023/07/15 11:27:46;;;;;;;;;;;;;;;52.87;12.37;92512.00;2055793;70;20045;-82
2023/07/15 11:30:12;;;;;;;;;;;;;;;51.22;13.67;92496.53;2055594;70;20050;-81
2023/07/15 11:32:37;;;;;;;;;;;;;;;52.39;12.79;92498.16;2055334;70;20053;-80
2023/07/15 11:35:12;;;;;;;;;;;;;;;54.00;12.36;92498.31;2055533;70;20066;-81
2023/07/15 11:37:44;;;;;;;;;;;;;;;54.01;12.56;92496.72;2055720;69;20055;-80
2023/07/15 11:40:19;;;;;;;;;;;;;;;54.93;11.13;92498.47;2055128;70;20057;-81
2023/07/15 11:42:45;;;;;;;;;;;;;;;55.98;11.56;92496.84;2055596;70;20145;-80
2023/07/15 11:45:10;;;;;;;;;;;;;;;52.80;12.72;92473.56;2052466;70;20145;-80
2023/07/15 11:47:36;;;;;;;;;;;;;;;53.20;12.67;92470.88;2052468;70;20109;-80
2023/07/15 11:50:02;;;;;;;;;;;;;;;50.97;13.08;92459.97;2052204;70;20149;-80
2023/07/15 11:52:28;;;;;;;;;;;;;;;51.00;13.10;92466.44;2055510;70;20047;-81
2023/07/15 11:54:54;;;;;;;;;;;;;;;53.34;12.24;92462.63;2055391;69;20097;-81
2023/07/15 11:57:28;;;;;;;;;;;;;;;53.83;11.94;92454.25;2055556;70;20516;-80
2023/07/15 11:59:54;;;;;;;;;;;;;;;54.34;11.95;92457.63;2055722;69;20474;-81
2023/07/15 12:02:19;;;;;;;;;;;;;;;54.96;11.32;92452.09;2055557;70;20053;-81
2023/07/15 12:04:45;;;;;;;;;;;;;;;55.00;11.46;92448.63;2055453;70;20047;-81
2023/07/15 12:07:12;;;;;;;;;;;;;;;54.33;11.65;92441.19;2055618;70;20490;-80
2023/07/15 12:09:37;;;;;;;;;;;;;;;55.65;10.71;92434.31;2055632;69;20051;-81
2023/07/15 12:12:03;;;;;;;;;;;;;;;57.58;10.07;92444.91;2055323;69;20494;-81
2023/07/15 12:14:31;;;;;;;;;;;;;;;58.07;10.91;92438.75;2055610;70;20054;-80
2023/07/15 12:16:59;;;;;;;;;;;;;;;56.59;9.75;92440.50;2055507;70;20067;-81
2023/07/15 12:19:25;;;;;;;;;;;;;;;53.97;10.78;92422.59;2055566;70;20434;-80
2023/07/15 12:21:51;;;;;;;;;;;;;;;50.79;12.78;92422.81;2055586;70;20056;-81
2023/07/15 12:24:16;;;;;;;;;;;;;;;53.49;12.56;92416.66;2055538;69;20053;-81
2023/07/15 12:26:42;;;;;;;;;;;;;;;55.68;10.68;92393.22;2055352;69;20074;-82
2023/07/15 12:29:07;;;;;;;;;;;;;;;55.73;10.30;92387.38;2055545;69;20060;-82
2023/07/15 12:31:33;;;;;;;;;;;;;;;55.83;10.21;92380.16;2055570;70;20059;-82
2023/07/15 12:33:58;;;;;;;;;;;;;;;56.38;10.58;92378.84;2055662;69;20051;-83
2023/07/15 12:36:24;;;;;;;;;;;;;;;48.28;14.92;92357.22;2055625;70;20046;-83
2023/07/15 12:38:49;;;;;;;;;;;;;;;46.05;16.82;92345.53;2055657;70;20047;-83
2023/07/15 12:41:15;;;;;;;;;;;;;;;45.19;16.47;92341.91;2055632;69;20051;-82
2023/07/15 12:43:42;;;;;;;;;;;;;;;45.54;16.65;92345.88;2055232;69;20495;-82
2023/07/15 12:46:07;;;;;;;;;;;;;;;45.68;16.44;92338.09;2055300;70;20078;-81